< < Back
Terminal Aerodrome Forecast


Current Version              Previous Versions:   1  2  3  4  5  6  7  8  9  

Terminal Aerodrome Forecast

641
FTUS42 KFFC 200500
TAFPDK
TAF
KPDK 200529Z 2006/2106 23003KT P6SM FEW009 BKN250
     FM200900 24002KT 4SM BR BKN008
     FM201300 27004KT P6SM BKN020
     FM201500 29007KT P6SM SCT035
     FM201700 28009KT P6SM SCT045 PROB30 2018/2022 4SM -TSRA
      BKN030CB
     FM210200 28003KT P6SM FEW050=



Latest METAR

653
SAUS70 KWBC 200800 RRI
MTRPDK
METAR KPDK 200753Z AUTO 00000KT 7SM CLR 22/21 A2996 RMK AO2 SLP128
T02220206 $


USA.gov is the U.S. government's official web portal to all federal, state and local government web resources and services.